createdAt,value
2019-04-26T00:01:24.140Z,12.20
2019-04-26T00:03:54.690Z,12.10
2019-04-26T00:06:25.057Z,12.00
2019-04-26T00:09:03.340Z,12.00
2019-04-26T00:11:39.068Z,11.80
2019-04-26T00:19:16.480Z,11.60
2019-04-26T00:26:47.310Z,11.40
2019-04-26T00:29:17.413Z,11.30
2019-04-26T00:31:52.776Z,11.30
2019-04-26T00:36:57.620Z,11.10
2019-04-26T00:39:27.740Z,10.90
2019-04-26T00:41:59.686Z,10.80
2019-04-26T00:44:29.948Z,10.70
2019-04-26T00:47:03.748Z,10.70
2019-04-26T00:49:43.470Z,10.50
2019-04-26T00:52:11.275Z,10.40
2019-04-26T00:57:14.616Z,10.00
2019-04-26T01:07:31.717Z,9.60
2019-04-26T01:10:02.832Z,9.50
2019-04-26T01:12:32.925Z,9.50
2019-04-26T01:15:06.927Z,9.50
2019-04-26T01:17:38.954Z,9.50
2019-04-26T01:20:09.850Z,9.50
2019-04-26T01:25:38.066Z,9.60
2019-04-26T01:28:13.725Z,9.60
2019-04-26T01:30:44.932Z,9.50
2019-04-26T01:33:15.253Z,9.50
2019-04-26T01:38:17.498Z,9.40
2019-04-26T01:40:49.256Z,9.30
2019-04-26T01:43:22.710Z,9.20
2019-04-26T01:45:58.533Z,9.10
2019-04-26T01:48:45.910Z,9.00
2019-04-26T01:53:54.987Z,9.00
2019-04-26T01:56:29.690Z,9.00
2019-04-26T01:58:59.972Z,8.90
2019-04-26T02:01:32.812Z,8.80
2019-04-26T02:06:35.321Z,8.50
2019-04-26T02:11:46.216Z,8.10
2019-04-26T02:14:20.407Z,7.80
2019-04-26T02:16:50.906Z,7.70
2019-04-26T02:21:58.882Z,7.50
2019-04-26T02:24:32.292Z,7.50
2019-04-26T02:29:34.938Z,7.50
2019-04-26T02:32:07.766Z,7.50
2019-04-26T02:39:42.881Z,7.40
2019-04-26T02:42:23.463Z,7.40
2019-04-26T02:45:05.474Z,7.50
2019-04-26T02:47:47.081Z,7.50
2019-04-26T02:50:30.296Z,7.50
2019-04-26T02:56:21.110Z,7.40
2019-04-26T02:59:02.211Z,7.50
2019-04-26T03:04:04.204Z,7.40
2019-04-26T03:06:40.767Z,7.30
2019-04-26T03:09:15.896Z,7.30
2019-04-26T03:14:23.381Z,7.10
2019-04-26T03:22:49.632Z,7.00
2019-04-26T03:31:53.048Z,6.80
2019-04-26T03:34:39.292Z,6.70
2019-04-26T03:37:34.541Z,6.60
2019-04-26T03:40:50.102Z,6.40
2019-04-26T03:43:57.856Z,6.40
2019-04-26T03:49:46.923Z,6.00
2019-04-26T03:52:37.922Z,6.00
2019-04-26T03:55:53.906Z,6.00
2019-04-26T04:04:39.612Z,6.10
2019-04-26T04:07:14.599Z,6.20
2019-04-26T04:10:13.412Z,6.30
2019-04-26T04:13:03.036Z,6.40
2019-04-26T04:15:38.574Z,6.40
2019-04-26T04:21:25.889Z,6.40
2019-04-26T04:24:13.595Z,6.40
2019-04-26T04:27:09.241Z,6.50
2019-04-26T04:30:16.814Z,6.60
2019-04-26T04:33:12.318Z,6.60
2019-04-26T04:35:56.334Z,6.70
2019-04-26T04:38:50.126Z,6.60
2019-04-26T04:41:57.854Z,6.70
2019-04-26T04:45:09.989Z,6.70
2019-04-26T04:48:16.509Z,6.80
2019-04-26T04:50:56.966Z,6.90
2019-04-26T04:53:44.729Z,6.90
2019-04-26T04:56:35.063Z,6.90
2019-04-26T04:59:48.129Z,7.00
2019-04-26T05:08:22.501Z,7.40
2019-04-26T05:11:16.869Z,7.50
2019-04-26T05:19:57.525Z,7.90
2019-04-26T05:22:55.474Z,8.00
2019-04-26T05:26:12.226Z,8.10
2019-04-26T05:35:08.725Z,8.60
2019-04-26T05:38:00.371Z,8.70
2019-04-26T05:41:25.069Z,8.80
2019-04-26T05:45:09.532Z,9.10
2019-04-26T05:48:22.489Z,9.20
2019-04-26T05:51:37.105Z,9.60
2019-04-26T05:57:51.140Z,10.50
2019-04-26T06:00:50.570Z,10.90
2019-04-26T06:06:38.269Z,11.80
2019-04-26T06:10:05.237Z,12.10
2019-04-26T06:13:18.964Z,12.30
2019-04-26T06:19:01.709Z,12.90
2019-04-26T06:21:52.167Z,12.90
2019-04-26T06:24:42.351Z,12.90
2019-04-26T06:27:45.563Z,12.90
2019-04-26T06:35:59.345Z,13.50
2019-04-26T06:38:59.956Z,13.40
2019-04-26T06:42:02.869Z,13.70
2019-04-26T06:44:50.885Z,13.80
2019-04-26T06:47:27.237Z,14.10
2019-04-26T06:50:16.230Z,14.90
2019-04-26T06:53:17.677Z,14.80
2019-04-26T06:56:02.972Z,14.20
2019-04-26T06:59:36.322Z,14.10
2019-04-26T07:02:20.817Z,14.00
2019-04-26T07:05:07.272Z,13.90
2019-04-26T07:07:47.634Z,13.70
2019-04-26T07:10:56.571Z,13.40
2019-04-26T07:16:23.877Z,13.20
2019-04-26T07:19:21.010Z,13.80
2019-04-26T07:25:30.438Z,14.50
2019-04-26T07:28:22.867Z,14.30
2019-04-26T07:31:29.114Z,14.20
2019-04-26T07:34:37.545Z,14.20
2019-04-26T07:38:05.030Z,14.00
2019-04-26T07:41:28.334Z,13.70
2019-04-26T07:44:32.719Z,13.30
2019-04-26T07:47:45.438Z,13.20
2019-04-26T07:50:52.021Z,13.00
2019-04-26T07:53:59.953Z,13.00
2019-04-26T07:56:35.641Z,13.20
2019-04-26T07:59:47.037Z,13.30
2019-04-26T08:02:47.661Z,13.30
2019-04-26T08:05:50.385Z,13.40
2019-04-26T08:08:25.357Z,13.40
2019-04-26T08:11:20.457Z,13.30
2019-04-26T08:16:50.645Z,13.00
2019-04-26T08:19:25.425Z,13.20
2019-04-26T08:22:15.392Z,13.00
2019-04-26T08:24:37.106Z,13.00
2019-04-26T08:27:23.613Z,13.00
2019-04-26T08:29:58.608Z,12.90
2019-04-26T08:32:34.247Z,12.90
2019-04-26T08:35:16.893Z,13.00
2019-04-26T08:40:30.641Z,13.30
2019-04-26T08:46:02.765Z,13.60
2019-04-26T08:48:32.741Z,13.60
2019-04-26T08:53:46.562Z,13.70
2019-04-26T08:56:23.734Z,13.60
2019-04-26T08:59:02.290Z,13.70
2019-04-26T09:04:22.318Z,13.60
2019-04-26T09:07:04.465Z,13.30
2019-04-26T09:09:39.134Z,13.10
2019-04-26T09:12:23.233Z,12.90
2019-04-26T09:15:12.004Z,12.80
2019-04-26T09:17:48.341Z,13.00
2019-04-26T09:23:03.932Z,12.80
2019-04-26T09:25:58.706Z,12.80
2019-04-26T09:28:22.234Z,13.00
2019-04-26T09:30:55.331Z,12.90
2019-04-26T09:33:36.085Z,12.90
2019-04-26T09:36:10.002Z,12.90
2019-04-26T09:38:42.021Z,12.80
2019-04-26T09:41:12.341Z,12.50
2019-04-26T09:46:48.506Z,12.40
2019-04-26T09:49:23.457Z,12.80
2019-04-26T09:51:56.353Z,12.90
2019-04-26T09:54:28.490Z,13.40
2019-04-26T09:56:58.593Z,13.90
2019-04-26T10:02:05.273Z,13.60
2019-04-26T10:04:37.309Z,13.40
2019-04-26T10:09:37.141Z,12.80
2019-04-26T10:12:20.261Z,12.50
2019-04-26T10:14:57.725Z,12.50
2019-04-26T10:17:29.474Z,12.50
2019-04-26T10:20:07.949Z,12.40
2019-04-26T10:22:39.058Z,12.10
2019-04-26T10:25:16.580Z,12.00
2019-04-26T10:27:54.851Z,11.90
2019-04-26T10:30:30.835Z,11.80
2019-04-26T10:33:02.158Z,11.60
2019-04-26T10:35:35.481Z,11.40
2019-04-26T10:38:05.641Z,11.30
2019-04-26T10:40:36.757Z,11.20
2019-04-26T10:43:16.135Z,11.30
2019-04-26T10:46:04.840Z,11.40
2019-04-26T10:51:07.451Z,11.90
2019-04-26T10:53:51.441Z,11.80
2019-04-26T10:56:38.202Z,11.70
2019-04-26T10:59:23.050Z,11.60
2019-04-26T11:01:53.221Z,11.60
2019-04-26T11:04:32.331Z,11.60
2019-04-26T11:09:47.653Z,11.30
2019-04-26T11:12:25.842Z,11.30
2019-04-26T11:14:56.909Z,11.20
2019-04-26T11:17:31.413Z,11.10
2019-04-26T11:20:01.581Z,11.20
2019-04-26T11:22:39.079Z,11.30
2019-04-26T11:25:11.806Z,11.50
2019-04-26T11:27:44.309Z,11.50
2019-04-26T11:30:20.616Z,11.90
2019-04-26T11:32:47.197Z,12.20
2019-04-26T11:35:17.293Z,12.30
2019-04-26T11:37:50.714Z,12.40
2019-04-26T11:42:55.851Z,12.60
2019-04-26T11:45:26.197Z,12.40
2019-04-26T11:47:57.875Z,12.20
2019-04-26T11:50:53.652Z,12.20
2019-04-26T11:53:23.854Z,12.10
2019-04-26T11:56:05.987Z,11.90
2019-04-26T11:58:36.100Z,11.60
2019-04-26T12:01:07.849Z,11.60
2019-04-26T12:03:39.589Z,11.60
2019-04-26T12:06:17.533Z,11.70
2019-04-26T12:08:50.184Z,11.80
2019-04-26T12:11:34.184Z,11.80
2019-04-26T12:13:59.401Z,11.80
2019-04-26T12:16:31.805Z,11.70
2019-04-26T12:24:03.080Z,11.30
2019-04-26T12:26:42.542Z,11.30
2019-04-26T12:29:05.044Z,11.20
2019-04-26T12:31:40.942Z,11.10
2019-04-26T12:34:17.874Z,11.10
2019-04-26T12:36:49.101Z,11.00
2019-04-26T12:39:26.121Z,11.00
2019-04-26T12:42:08.112Z,10.90
2019-04-26T12:44:41.230Z,10.60
2019-04-26T12:47:13.999Z,10.40
2019-04-26T12:52:17.488Z,10.30
2019-04-26T12:54:46.689Z,10.40
2019-04-26T12:57:26.630Z,10.50
2019-04-26T12:59:57.505Z,10.60
2019-04-26T13:02:28.803Z,10.70
2019-04-26T13:04:58.921Z,10.70
2019-04-26T13:07:35.129Z,10.80
2019-04-26T13:10:20.733Z,10.80
2019-04-26T13:13:01.485Z,10.50
2019-04-26T13:16:05.552Z,10.40
2019-04-26T13:18:41.136Z,10.30
2019-04-26T13:28:57.089Z,10.20
2019-04-26T13:31:31.468Z,10.10
2019-04-26T13:33:58.363Z,10.00
2019-04-26T13:38:59.253Z,9.90
2019-04-26T13:44:01.256Z,9.80
2019-04-26T13:46:41.906Z,9.60
2019-04-26T13:49:18.174Z,9.30
2019-04-26T13:51:48.180Z,9.00
2019-04-26T13:54:22.711Z,8.90
2019-04-26T13:56:52.869Z,8.80
2019-04-26T13:59:22.961Z,8.70
2019-04-26T14:01:55.009Z,8.60
2019-04-26T14:04:25.154Z,8.50
2019-04-26T14:07:00.381Z,8.50
2019-04-26T14:09:30.469Z,8.40
2019-04-26T14:12:18.166Z,8.50
2019-04-26T14:14:43.321Z,8.60
2019-04-26T14:17:13.481Z,8.60
2019-04-26T14:22:16.665Z,8.60
2019-04-26T14:24:52.947Z,8.20
2019-04-26T14:27:25.185Z,8.60
2019-04-26T14:29:55.273Z,8.50
2019-04-26T14:37:31.808Z,8.20
2019-04-26T14:40:15.987Z,8.20
2019-04-26T14:42:42.498Z,8.20
2019-04-26T14:50:17.754Z,8.40
2019-04-26T14:55:21.071Z,8.40
2019-04-26T15:00:25.187Z,8.40
2019-04-26T15:05:56.685Z,8.30
2019-04-26T15:23:38.981Z,8.30
2019-04-26T15:26:09.077Z,8.30
2019-04-26T15:33:48.904Z,8.90
2019-04-26T15:38:48.991Z,9.20
2019-04-26T15:41:36.933Z,9.30
2019-04-26T15:44:13.439Z,9.40
2019-04-26T15:56:55.310Z,9.30
2019-04-26T15:59:26.411Z,9.10
2019-04-26T16:01:56.575Z,9.00
2019-04-26T16:04:26.590Z,8.90
2019-04-26T16:06:59.600Z,8.90
2019-04-26T16:09:32.475Z,8.90
2019-04-26T16:17:06.671Z,9.10
2019-04-26T16:24:38.346Z,9.00
2019-04-26T16:29:46.759Z,9.00
2019-04-26T16:32:30.250Z,9.00
2019-04-26T16:35:03.855Z,8.90
2019-04-26T16:37:35.194Z,8.80
2019-04-26T16:40:12.348Z,8.70
2019-04-26T16:45:12.331Z,8.70
2019-04-26T16:47:47.336Z,8.60
2019-04-26T16:52:47.906Z,8.60
2019-04-26T17:00:44.993Z,8.50
2019-04-26T17:03:02.727Z,8.50
2019-04-26T17:05:45.464Z,8.40
2019-04-26T17:08:04.160Z,8.30
2019-04-26T17:10:30.641Z,8.40
2019-04-26T17:15:30.486Z,8.40
2019-04-26T17:18:07.370Z,8.30
2019-04-26T17:20:40.551Z,8.30
2019-04-26T17:23:12.455Z,8.30
2019-04-26T17:28:32.499Z,8.30
2019-04-26T17:33:32.726Z,8.30
2019-04-26T17:36:11.475Z,8.30
2019-04-26T17:38:42.004Z,8.30
2019-04-26T17:43:47.085Z,8.40
2019-04-26T17:46:21.862Z,8.40
2019-04-26T17:48:53.950Z,8.50
2019-04-26T17:51:24.092Z,8.50
2019-04-26T17:54:18.981Z,8.40
2019-04-26T17:56:31.443Z,8.40
2019-04-26T17:59:03.227Z,8.40
2019-04-26T18:04:11.291Z,8.50
2019-04-26T18:06:45.445Z,8.40
2019-04-26T18:09:38.148Z,8.40
2019-04-26T18:11:51.081Z,8.30
2019-04-26T18:14:21.930Z,8.30
2019-04-26T18:17:04.511Z,8.20
2019-04-26T18:19:39.401Z,8.20
2019-04-26T18:27:35.900Z,8.10
2019-04-26T18:30:27.384Z,8.10
2019-04-26T18:32:57.643Z,8.10
2019-04-26T18:35:43.495Z,8.10
2019-04-26T18:38:26.522Z,8.10
2019-04-26T18:43:29.258Z,8.10
2019-04-26T18:46:03.330Z,8.00
2019-04-26T18:48:40.629Z,8.10
2019-04-26T18:56:13.666Z,8.00
2019-04-26T18:58:44.490Z,8.00
2019-04-26T19:01:16.410Z,8.00
2019-04-26T19:03:49.291Z,8.00
2019-04-26T19:08:52.756Z,8.10
2019-04-26T19:11:32.717Z,8.10
2019-04-26T19:14:12.971Z,8.10
2019-04-26T19:16:46.360Z,8.10
2019-04-26T19:22:05.513Z,8.20
2019-04-26T19:24:38.427Z,8.20
2019-04-26T19:29:38.124Z,8.20
2019-04-26T19:32:08.230Z,8.20
2019-04-26T19:34:38.318Z,8.20
2019-04-26T19:37:08.415Z,8.20
2019-04-26T19:42:15.070Z,8.20
2019-04-26T19:44:49.431Z,8.20
2019-04-26T19:50:13.571Z,8.20
2019-04-26T19:55:47.303Z,8.30
2019-04-26T19:58:22.431Z,8.30
2019-04-26T20:01:01.962Z,8.30
2019-04-26T20:03:34.068Z,8.30
2019-04-26T20:06:18.539Z,8.30
2019-04-26T20:41:03.865Z,8.20
2019-04-26T20:43:36.760Z,8.30
2019-04-26T20:46:14.945Z,8.30
2019-04-26T20:51:24.357Z,8.40
2019-04-26T20:59:01.786Z,8.30
2019-04-26T21:01:32.139Z,8.40
2019-04-26T21:04:08.022Z,8.40
2019-04-26T21:09:09.536Z,8.40
2019-04-26T21:16:49.297Z,8.40
2019-04-26T21:19:18.961Z,8.40
2019-04-26T21:24:25.150Z,8.40
2019-04-26T21:30:03.379Z,8.40
2019-04-26T21:32:56.007Z,8.30
2019-04-26T21:43:09.736Z,8.30
2019-04-26T21:45:40.742Z,8.30
2019-04-26T21:48:10.851Z,8.20
2019-04-26T21:50:47.771Z,8.20
2019-04-26T21:58:19.151Z,8.20
2019-04-26T22:03:26.698Z,8.20
2019-04-26T22:08:29.122Z,8.20
2019-04-26T22:13:47.523Z,8.20
2019-04-26T22:19:14.753Z,8.10
2019-04-26T22:21:55.411Z,8.10
2019-04-26T22:27:04.906Z,8.00
2019-04-26T22:29:35.018Z,8.00
2019-04-26T22:32:05.247Z,8.00
2019-04-26T22:34:37.328Z,8.00
2019-04-26T22:47:20.222Z,8.00
2019-04-26T22:49:50.619Z,8.00
2019-04-26T22:52:20.776Z,8.00
2019-04-26T23:02:26.216Z,8.20
2019-04-26T23:04:58.739Z,8.20
2019-04-26T23:10:05.170Z,8.10
2019-04-26T23:12:48.967Z,8.10
2019-04-26T23:15:23.980Z,8.10
2019-04-26T23:18:09.471Z,8.10
2019-04-26T23:23:13.520Z,8.10
2019-04-26T23:25:43.636Z,8.10
2019-04-26T23:30:44.291Z,8.10
2019-04-26T23:33:15.168Z,8.00
2019-04-26T23:35:47.569Z,8.00
2019-04-26T23:43:24.008Z,8.00
2019-04-26T23:48:20.994Z,8.00
2019-04-26T23:50:51.089Z,8.00
2019-04-26T23:53:21.394Z,8.10
2019-04-26T23:58:22.967Z,8.10
